• Join FlightAware (Why Join?)
  • Login
  • US Flag 
08:24AM EST


 

Airport Tracker/Info


-or-


 

Live Flight TrackerFlight Track Log ✈ GGN7281 ✈ 22-Apr-2013 ✈ KROC - CYYZ

Flight Track Log - Related Links

Times and Time Zones

All times are in EDT time to prevent confusion due to time zone crossing. See the GGN7281 flight status page for this flight to view local times or setup timezone preferences in your user account.

Time Position Orientation Groundspeed Altitude Reporting Facility
EDT Latitude Longitude Course Direction KTS MPH feet Rate Location/Type
05:49PM 43.5000 -74.6500 261° West 310 357 25,000  Level Toronto Center
05:49PM 43.1233 -77.6450 261° West 134 154 1,700 -24,660 Descending Cleveland Center
05:50PM 43.1269 -77.6306 71° East 139 160 2,400 2,280 Climbing Cleveland Center
05:51PM 43.1572 -77.6744 313° West 161 185 5,500 2,280 Climbing Cleveland Center
05:52PM 43.1672 -77.7425 281° West 166 191 7,800 2,160 Climbing Cleveland Center
05:53PM 43.1794 -77.8072 285° West 172 198 9,900 1,080 Climbing Cleveland Center
05:54PM 43.1856 -77.8925 276° West 199 229 10,000  Climbing Cleveland Center
05:55PM 43.1897 -77.9892 273° West 231 266 10,000  Level Cleveland Center
05:56PM 43.1939 -78.0858 273° West 250 288 10,000  Level Cleveland Center
05:57PM 43.1981 -78.1825 273° West 250 288 10,000  Level Cleveland Center
05:58PM 43.2022 -78.2764 274° West 250 288 10,000  Level Cleveland Center
05:59PM 43.2061 -78.3731 273° West 250 288 10,000  Level Cleveland Center
06:00PM 43.2100 -78.4697 273° West 250 288 10,000  Level Cleveland Center
06:01PM 43.2222 -78.5806 279° West 268 308 10,000  Level Cleveland Center
06:02PM 43.2322 -78.6742 278° West 268 308 10,000  Level Cleveland Center
06:03PM 43.2419 -78.7594 279° West 258 297 10,000  Level Cleveland Center
06:04PM 43.2517 -78.8558 278° West 253 291 10,000  Level Cleveland Center
06:05PM 43.2500 -78.9167 268° West 250 288 10,000 -540 Level Toronto Center
06:06PM 43.2667 -79.0333 281° West 260 299 9,000 -540 Descending Toronto Center
06:07PM 43.2667 -79.1333 270° West 260 299 9,000  Level Toronto Center
06:08PM 43.2833 -79.2167 285° West 260 299 9,000  Level Toronto Center
06:09PM 43.3000 -79.3167 283° West 260 299 9,000  Level Toronto Center
06:10PM 43.3500 -79.3500 334° Northwest 250 288 9,000  Level Toronto Center
06:11PM 43.4167 -79.3833 340° North 260 299 9,000 -540 Level Toronto Center
06:12PM 43.4833 -79.4333 331° Northwest 260 299 8,000 -540 Descending Toronto Center
06:13PM 43.5500 -79.4667 340° North 260 299 8,000 -540 Level Toronto Center
06:14PM 43.5667 -79.5333 289° West 260 299 7,000 -1,440 Descending Toronto Center
06:15PM 43.5333 -79.6167 241° Southwest 230 265 5,200 -1,440 Descending Toronto Center
06:16PM 43.5333 -79.6500 270° West 210 242 4,200 -900 Descending Toronto Center
06:17PM 43.5833 -79.7000 324° Northwest 180 207 3,500 -960 Descending Toronto Center
06:18PM 43.6000 -79.6500 65° Northeast 160 184 2,300 -1,260 Descending Toronto Center
06:19PM 43.6333 -79.6333 20° North 150 173 1,000 -1,320 Descending Toronto Center